Cassville, West Virginia
Current Conditions -  °F | °C
As of 7:02 AM on Tuesday 27 Jan 2015 (Local Time) from KMGW Reporting Station
Haze Haze  
Wind Chill: 21°   Ceiling: 1000
Heat Index: 21°   Visibility: 4mi
Dew Point: 15°   Wind: 0mph
Humidity: 78%   Direction: NA
Pressure: 29.88"   Gusts: NA
Location:  39.66°N, 80.06°W
Report Text: KMGW 271202Z 00000KT 4SM HZ BKN010 BKN015 OVC024 M06/M09 A2988 RMK AO2 SNE1157 P0000 T10611094
Loading
Personal Weather Stations






























Interactive Weather Map New forecast layout! Learn more

10-Day Weather Forecast

Advertisements
Track Severe Weather on mobile